createdAt,value
2023-04-01T00:00:03.025Z,0.80
2023-04-01T00:01:02.853Z,0.80
2023-04-01T00:02:02.324Z,0.90
2023-04-01T00:03:02.202Z,0.90
2023-04-01T00:04:02.170Z,0.90
2023-04-01T00:05:02.111Z,0.90
2023-04-01T00:06:01.952Z,0.90
2023-04-01T00:07:02.049Z,0.70
2023-04-01T00:08:02.056Z,0.70
2023-04-01T00:09:01.923Z,0.70
2023-04-01T00:10:02.233Z,0.70
2023-04-01T00:11:02.334Z,0.70
2023-04-01T00:12:02.854Z,0.90
2023-04-01T00:13:02.486Z,0.90
2023-04-01T00:14:02.260Z,0.90
2023-04-01T00:15:02.464Z,0.90
2023-04-01T00:16:03.618Z,0.90
2023-04-01T00:17:02.813Z,0.50
2023-04-01T00:18:02.499Z,0.50
2023-04-01T00:19:02.008Z,0.50
2023-04-01T00:20:02.413Z,0.50
2023-04-01T00:21:02.402Z,0.50
2023-04-01T00:22:02.845Z,0.80
2023-04-01T00:23:02.810Z,0.80
2023-04-01T00:24:02.595Z,0.80
2023-04-01T00:25:02.534Z,0.80
2023-04-01T00:26:02.930Z,0.80
2023-04-01T00:27:03.164Z,0.80
2023-04-01T00:28:02.729Z,0.80
2023-04-01T00:29:03.213Z,0.80
2023-04-01T00:30:03.004Z,0.80
2023-04-01T00:31:02.869Z,0.80
2023-04-01T00:32:02.461Z,0.70
2023-04-01T00:33:01.915Z,0.70
2023-04-01T00:34:02.349Z,0.70
2023-04-01T00:35:02.044Z,0.70
2023-04-01T00:36:02.230Z,0.70
2023-04-01T00:37:02.130Z,1.00
2023-04-01T00:38:02.231Z,1.00
2023-04-01T00:39:02.236Z,1.00
2023-04-01T00:40:02.005Z,1.00
2023-04-01T00:41:02.598Z,1.00
2023-04-01T00:42:02.656Z,0.80
2023-04-01T00:43:02.457Z,0.80
2023-04-01T00:44:02.744Z,0.80
2023-04-01T00:45:02.792Z,0.80
2023-04-01T00:46:02.231Z,0.80
2023-04-01T00:47:01.854Z,0.70
2023-04-01T00:48:02.246Z,0.70
2023-04-01T00:49:01.822Z,0.70
2023-04-01T00:50:02.295Z,0.70
2023-04-01T00:51:01.860Z,0.70
2023-04-01T00:52:02.435Z,0.90
2023-04-01T00:53:02.876Z,0.90
2023-04-01T00:54:02.489Z,0.90
2023-04-01T00:55:02.523Z,0.90
2023-04-01T00:56:02.517Z,0.90
2023-04-01T00:57:02.142Z,0.70
2023-04-01T00:58:02.019Z,0.70
2023-04-01T00:59:02.107Z,0.70
2023-04-01T01:00:02.008Z,0.70
2023-04-01T01:01:02.149Z,0.70
2023-04-01T01:02:02.805Z,0.80
2023-04-01T01:03:02.770Z,0.80
2023-04-01T01:04:03.141Z,0.80
2023-04-01T01:05:03.083Z,0.80
2023-04-01T01:06:03.018Z,0.80
2023-04-01T01:07:02.938Z,1.30
2023-04-01T01:08:02.927Z,1.30
2023-04-01T01:09:02.881Z,1.30
2023-04-01T01:10:02.808Z,1.30
2023-04-01T01:11:03.416Z,1.30
2023-04-01T01:12:02.105Z,1.00
2023-04-01T01:13:02.044Z,1.00
2023-04-01T01:14:01.941Z,1.00
2023-04-01T01:15:02.511Z,1.00
2023-04-01T01:16:02.215Z,1.00
2023-04-01T01:17:02.662Z,1.00
2023-04-01T01:18:02.668Z,1.00
2023-04-01T01:19:02.540Z,1.00
2023-04-01T01:20:03.016Z,1.00
2023-04-01T01:21:02.943Z,1.00
2023-04-01T01:22:02.033Z,0.90
2023-04-01T01:23:02.218Z,0.90
2023-04-01T01:24:02.651Z,0.90
2023-04-01T01:25:02.217Z,0.90
2023-04-01T01:26:02.520Z,0.90
2023-04-01T01:27:02.376Z,0.90
2023-04-01T01:28:02.295Z,0.90
2023-04-01T01:29:02.672Z,0.90
2023-04-01T01:30:02.361Z,0.90
2023-04-01T01:31:02.265Z,0.90
2023-04-01T01:32:02.915Z,0.80
2023-04-01T01:33:02.792Z,0.80
2023-04-01T01:34:03.086Z,0.80
2023-04-01T01:35:02.947Z,0.80
2023-04-01T01:36:02.856Z,0.80
2023-04-01T01:37:02.389Z,0.80
2023-04-01T01:38:02.661Z,0.80
2023-04-01T01:39:02.366Z,0.80
2023-04-01T01:40:02.096Z,0.80
2023-04-01T01:41:02.670Z,0.80
2023-04-01T01:42:03.301Z,0.70
2023-04-01T01:43:02.685Z,0.70
2023-04-01T01:44:02.881Z,0.70
2023-04-01T01:45:03.319Z,0.70
2023-04-01T01:46:02.788Z,0.70
2023-04-01T01:47:02.047Z,0.60
2023-04-01T01:48:02.619Z,0.60
2023-04-01T01:49:02.334Z,0.60
2023-04-01T01:50:02.005Z,0.60
2023-04-01T01:51:02.103Z,0.60
2023-04-01T01:52:02.502Z,0.70
2023-04-01T01:53:02.606Z,0.70
2023-04-01T01:54:02.768Z,0.70
2023-04-01T01:55:02.390Z,0.70
2023-04-01T01:56:02.841Z,0.70
2023-04-01T01:57:03.031Z,0.60
2023-04-01T01:58:02.955Z,0.60
2023-04-01T01:59:02.769Z,0.60
2023-04-01T02:00:03.230Z,0.60
2023-04-01T02:01:03.190Z,0.60
2023-04-01T02:02:02.719Z,0.60
2023-04-01T02:03:02.623Z,0.60
2023-04-01T02:04:02.290Z,0.60
2023-04-01T02:05:02.867Z,0.60
2023-04-01T02:06:02.505Z,0.60
2023-04-01T02:07:02.931Z,0.60
2023-04-01T02:08:02.609Z,0.60
2023-04-01T02:09:03.110Z,0.60
2023-04-01T02:10:02.688Z,0.60
2023-04-01T02:11:03.092Z,0.60
2023-04-01T02:12:02.547Z,0.60
2023-04-01T02:13:02.392Z,0.60
2023-04-01T02:14:02.710Z,0.60
2023-04-01T02:15:02.334Z,0.60
2023-04-01T02:16:02.574Z,0.60
2023-04-01T02:17:02.848Z,0.60
2023-04-01T02:18:02.753Z,0.60
2023-04-01T02:19:02.527Z,0.60
2023-04-01T02:20:03.117Z,0.60
2023-04-01T02:21:02.727Z,0.60
2023-04-01T02:22:02.933Z,0.40
2023-04-01T02:23:03.060Z,0.40
2023-04-01T02:24:02.640Z,0.40
2023-04-01T02:25:03.138Z,0.40
2023-04-01T02:26:02.922Z,0.40
2023-04-01T02:27:02.508Z,0.60
2023-04-01T02:28:02.201Z,0.60
2023-04-01T02:29:02.414Z,0.60
2023-04-01T02:30:02.274Z,0.60
2023-04-01T02:31:02.114Z,0.60
2023-04-01T02:32:02.550Z,0.60
2023-04-01T02:33:02.303Z,0.60
2023-04-01T02:34:02.760Z,0.60
2023-04-01T02:35:02.261Z,0.60
2023-04-01T02:36:02.760Z,0.60
2023-04-01T02:37:02.916Z,0.70
2023-04-01T02:38:02.739Z,0.70
2023-04-01T02:39:03.048Z,0.70
2023-04-01T02:40:02.624Z,0.70
2023-04-01T02:41:03.041Z,0.70
2023-04-01T02:42:03.095Z,0.50
2023-04-01T02:43:03.350Z,0.50
2023-04-01T02:44:02.900Z,0.50
2023-04-01T02:45:02.778Z,0.50
2023-04-01T02:46:03.319Z,0.50
2023-04-01T02:47:02.784Z,0.60
2023-04-01T02:48:02.571Z,0.60
2023-04-01T02:49:02.733Z,0.60
2023-04-01T02:50:02.314Z,0.60
2023-04-01T02:51:02.225Z,0.60
2023-04-01T02:52:02.723Z,0.50
2023-04-01T02:53:02.382Z,0.50
2023-04-01T02:54:02.221Z,0.50
2023-04-01T02:55:02.798Z,0.50
2023-04-01T02:56:02.385Z,0.50
2023-04-01T02:57:02.836Z,0.60
2023-04-01T02:58:02.462Z,0.60
2023-04-01T02:59:02.415Z,0.60
2023-04-01T03:00:02.264Z,0.60
2023-04-01T03:01:02.577Z,0.60
2023-04-01T03:02:03.113Z,0.60
2023-04-01T03:03:02.822Z,0.60
2023-04-01T03:04:02.666Z,0.60
2023-04-01T03:05:03.080Z,0.60
2023-04-01T03:06:02.712Z,0.60
2023-04-01T03:07:03.178Z,0.60
2023-04-01T03:08:02.962Z,0.60
2023-04-01T03:09:02.788Z,0.60
2023-04-01T03:10:02.705Z,0.60
2023-04-01T03:11:03.290Z,0.60
2023-04-01T03:12:03.481Z,0.70
2023-04-01T03:13:03.189Z,0.70
2023-04-01T03:14:02.980Z,0.70
2023-04-01T03:15:11.284Z,0.70
2023-04-01T03:16:03.324Z,0.70
2023-04-01T03:17:02.755Z,0.70
2023-04-01T03:18:02.339Z,0.70
2023-04-01T03:19:02.660Z,0.70
2023-04-01T03:20:02.163Z,0.70
2023-04-01T03:21:02.651Z,0.70
2023-04-01T03:22:02.731Z,0.60
2023-04-01T03:23:02.853Z,0.60
2023-04-01T03:24:02.236Z,0.60
2023-04-01T03:25:02.772Z,0.60
2023-04-01T03:26:02.369Z,0.60
2023-04-01T03:27:02.849Z,0.70
2023-04-01T03:28:02.863Z,0.70
2023-04-01T03:29:02.571Z,0.70
2023-04-01T03:30:02.444Z,0.70
2023-04-01T03:31:02.452Z,0.70
2023-04-01T03:32:02.858Z,0.70
2023-04-01T03:33:03.326Z,0.70
2023-04-01T03:34:02.860Z,0.70
2023-04-01T03:35:03.266Z,0.70
2023-04-01T03:36:02.877Z,0.70
2023-04-01T03:37:03.064Z,0.60
2023-04-01T03:38:02.600Z,0.60
2023-04-01T03:39:02.979Z,0.60
2023-04-01T03:40:03.018Z,0.60
2023-04-01T03:41:02.571Z,0.60
2023-04-01T03:42:02.057Z,0.70
2023-04-01T03:43:02.560Z,0.70
2023-04-01T03:44:02.106Z,0.70
2023-04-01T03:45:02.684Z,0.70
2023-04-01T03:46:02.195Z,0.70
2023-04-01T03:47:03.140Z,0.60
2023-04-01T03:48:03.173Z,0.60
2023-04-01T03:49:02.818Z,0.60
2023-04-01T03:50:03.304Z,0.60
2023-04-01T03:51:03.135Z,0.60
2023-04-01T03:52:03.502Z,0.70
2023-04-01T03:53:03.568Z,0.70
2023-04-01T03:54:03.076Z,0.70
2023-04-01T03:55:03.606Z,0.70
2023-04-01T03:56:03.565Z,0.70
2023-04-01T03:57:02.194Z,0.40
2023-04-01T03:58:02.161Z,0.40
2023-04-01T03:59:02.597Z,0.40
2023-04-01T04:00:02.590Z,0.40
2023-04-01T04:01:02.110Z,0.40
2023-04-01T04:02:02.616Z,0.50
2023-04-01T04:03:03.126Z,0.50
2023-04-01T04:04:02.840Z,0.50
2023-04-01T04:05:02.609Z,0.50
2023-04-01T04:06:03.013Z,0.50
2023-04-01T04:07:02.903Z,0.50
2023-04-01T04:08:03.340Z,0.50
2023-04-01T04:09:03.185Z,0.50
2023-04-01T04:10:03.021Z,0.50
2023-04-01T04:11:02.863Z,0.50
2023-04-01T04:12:03.275Z,0.50
2023-04-01T04:13:03.483Z,0.50
2023-04-01T04:14:03.293Z,0.50
2023-04-01T04:15:03.823Z,0.50
2023-04-01T04:16:03.464Z,0.50
2023-04-01T04:17:02.912Z,0.50
2023-04-01T04:18:03.379Z,0.50
2023-04-01T04:19:02.967Z,0.50
2023-04-01T04:20:02.712Z,0.50
2023-04-01T04:21:03.098Z,0.50
2023-04-01T04:22:02.831Z,0.50
2023-04-01T04:23:03.358Z,0.50
2023-04-01T04:24:02.844Z,0.50
2023-04-01T04:25:03.290Z,0.50
2023-04-01T04:26:03.134Z,0.50
2023-04-01T04:27:02.604Z,0.50
2023-04-01T04:28:02.903Z,0.50
2023-04-01T04:29:02.985Z,0.50
2023-04-01T04:30:02.622Z,0.50
2023-04-01T04:31:02.536Z,0.50
2023-04-01T04:32:03.174Z,0.40
2023-04-01T04:33:03.030Z,0.40
2023-04-01T04:34:02.848Z,0.40
2023-04-01T04:35:03.078Z,0.40
2023-04-01T04:36:02.931Z,0.40
2023-04-01T04:37:03.368Z,0.40
2023-04-01T04:38:03.803Z,0.40
2023-04-01T04:39:03.301Z,0.40
2023-04-01T04:40:03.856Z,0.40
2023-04-01T04:41:03.221Z,0.40
2023-04-01T04:42:02.644Z,0.30
2023-04-01T04:43:02.458Z,0.30
2023-04-01T04:44:02.991Z,0.30
2023-04-01T04:45:03.053Z,0.30
2023-04-01T04:46:02.584Z,0.30
2023-04-01T04:47:03.188Z,0.40
2023-04-01T04:48:02.991Z,0.40
2023-04-01T04:49:03.434Z,0.40
2023-04-01T04:50:02.852Z,0.40
2023-04-01T04:51:03.283Z,0.40
2023-04-01T04:52:02.586Z,0.40
2023-04-01T04:53:02.466Z,0.40
2023-04-01T04:54:02.697Z,0.40
2023-04-01T04:55:02.413Z,0.40
2023-04-01T04:56:02.307Z,0.40
2023-04-01T04:57:02.816Z,0.50
2023-04-01T04:58:02.458Z,0.50
2023-04-01T04:59:02.906Z,0.50
2023-04-01T05:00:02.484Z,0.50
2023-04-01T05:01:02.813Z,0.50
2023-04-01T05:02:02.200Z,0.50
2023-04-01T05:03:02.174Z,0.50
2023-04-01T05:04:02.132Z,0.50
2023-04-01T05:05:01.956Z,0.50
2023-04-01T05:06:01.923Z,0.50
2023-04-01T05:07:02.406Z,0.40
2023-04-01T05:08:02.123Z,0.40
2023-04-01T05:09:02.017Z,0.40
2023-04-01T05:10:02.603Z,0.40
2023-04-01T05:11:02.220Z,0.40
2023-04-01T05:12:02.810Z,0.30
2023-04-01T05:13:02.694Z,0.30
2023-04-01T05:14:02.591Z,0.30
2023-04-01T05:15:02.500Z,0.30
2023-04-01T05:16:02.543Z,0.30
2023-04-01T05:17:03.259Z,0.30
2023-04-01T05:18:02.970Z,0.30
2023-04-01T05:19:02.952Z,0.30
2023-04-01T05:20:02.778Z,0.30
2023-04-01T05:21:03.286Z,0.30
2023-04-01T05:22:02.705Z,0.20
2023-04-01T05:23:02.596Z,0.20
2023-04-01T05:24:02.354Z,0.20
2023-04-01T05:25:02.229Z,0.20
2023-04-01T05:26:02.852Z,0.20
2023-04-01T05:27:03.231Z,0.40
2023-04-01T05:28:03.099Z,0.40
2023-04-01T05:29:02.980Z,0.40
2023-04-01T05:30:03.282Z,0.40
2023-04-01T05:31:02.782Z,0.40
2023-04-01T05:32:02.538Z,0.30
2023-04-01T05:33:02.118Z,0.30
2023-04-01T05:34:02.043Z,0.30
2023-04-01T05:35:02.671Z,0.30
2023-04-01T05:36:02.452Z,0.30
2023-04-01T05:37:02.904Z,0.30
2023-04-01T05:38:02.785Z,0.30
2023-04-01T05:39:02.732Z,0.30
2023-04-01T05:40:02.677Z,0.30
2023-04-01T05:41:02.514Z,0.30
2023-04-01T05:42:03.090Z,0.30
2023-04-01T05:43:02.623Z,0.30
2023-04-01T05:44:02.582Z,0.30
2023-04-01T05:45:03.077Z,0.30
2023-04-01T05:46:03.162Z,0.30
2023-04-01T05:47:02.593Z,0.40
2023-04-01T05:48:02.299Z,0.40
2023-04-01T05:49:02.245Z,0.40
2023-04-01T05:50:02.139Z,0.40
2023-04-01T05:51:02.585Z,0.40
2023-04-01T05:52:02.810Z,0.30
2023-04-01T05:53:02.718Z,0.30
2023-04-01T05:54:02.813Z,0.30
2023-04-01T05:55:02.257Z,0.30
2023-04-01T05:56:02.726Z,0.30
2023-04-01T05:57:01.765Z,0.30
2023-04-01T05:58:01.950Z,0.30
2023-04-01T05:59:01.794Z,0.30
2023-04-01T06:00:02.247Z,0.30
2023-04-01T06:01:09.627Z,0.30
2023-04-01T06:02:02.714Z,0.80
2023-04-01T06:03:02.505Z,0.80
2023-04-01T06:04:02.415Z,0.80
2023-04-01T06:05:02.293Z,0.80
2023-04-01T06:06:02.259Z,0.80
2023-04-01T06:07:02.197Z,0.50
2023-04-01T06:08:02.705Z,0.50
2023-04-01T06:09:02.358Z,0.50
2023-04-01T06:10:02.184Z,0.50
2023-04-01T06:11:02.773Z,0.50
2023-04-01T06:12:03.254Z,0.30
2023-04-01T06:13:03.292Z,0.30
2023-04-01T06:14:02.911Z,0.30
2023-04-01T06:15:02.722Z,0.30
2023-04-01T06:16:02.685Z,0.30
2023-04-01T06:17:02.654Z,0.30
2023-04-01T06:18:03.100Z,0.30
2023-04-01T06:19:02.990Z,0.30
2023-04-01T06:20:03.085Z,0.30
2023-04-01T06:21:02.946Z,0.30
2023-04-01T06:22:02.741Z,0.40
2023-04-01T06:23:03.363Z,0.40
2023-04-01T06:24:03.081Z,0.40
2023-04-01T06:25:02.977Z,0.40
2023-04-01T06:26:02.867Z,0.40
2023-04-01T06:27:03.394Z,0.40
2023-04-01T06:28:02.993Z,0.40
2023-04-01T06:29:03.195Z,0.40
2023-04-01T06:30:03.170Z,0.40
2023-04-01T06:31:03.076Z,0.40
2023-04-01T06:32:02.093Z,0.60
2023-04-01T06:33:02.681Z,0.60
2023-04-01T06:34:02.523Z,0.60
2023-04-01T06:35:02.483Z,0.60
2023-04-01T06:36:02.331Z,0.60
2023-04-01T06:37:02.678Z,0.40
2023-04-01T06:38:03.163Z,0.40
2023-04-01T06:39:02.829Z,0.40
2023-04-01T06:40:02.833Z,0.40
2023-04-01T06:41:02.698Z,0.40
2023-04-01T06:42:02.340Z,0.30
2023-04-01T06:43:02.879Z,0.30
2023-04-01T06:44:02.461Z,0.30
2023-04-01T06:45:02.254Z,0.30
2023-04-01T06:46:02.322Z,0.30
2023-04-01T06:47:02.877Z,0.50
2023-04-01T06:48:03.470Z,0.50
2023-04-01T06:49:02.907Z,0.50
2023-04-01T06:50:02.912Z,0.50
2023-04-01T06:51:02.884Z,0.50
2023-04-01T06:52:02.780Z,0.60
2023-04-01T06:53:02.603Z,0.60
2023-04-01T06:54:02.548Z,0.60
2023-04-01T06:55:02.462Z,0.60
2023-04-01T06:56:02.414Z,0.60
2023-04-01T06:57:03.088Z,0.40
2023-04-01T06:58:03.292Z,0.40
2023-04-01T06:59:03.248Z,0.40
2023-04-01T07:00:03.519Z,0.40
2023-04-01T07:01:03.258Z,0.40
2023-04-01T07:02:02.721Z,0.70
2023-04-01T07:03:03.819Z,0.70
2023-04-01T07:04:02.778Z,0.70
2023-04-01T07:05:02.686Z,0.70
2023-04-01T07:06:03.134Z,0.70
2023-04-01T07:07:02.840Z,0.50
2023-04-01T07:08:03.006Z,0.50
2023-04-01T07:09:05.118Z,0.50
2023-04-01T07:10:02.827Z,0.50
2023-04-01T07:11:03.280Z,0.50
2023-04-01T07:12:03.027Z,0.80
2023-04-01T07:13:02.928Z,0.80
2023-04-01T07:14:02.892Z,0.80
2023-04-01T07:15:02.816Z,0.80
2023-04-01T07:16:03.353Z,0.80
2023-04-01T07:17:03.194Z,0.80
2023-04-01T07:18:03.193Z,0.80
2023-04-01T07:19:03.031Z,0.80
2023-04-01T07:20:03.283Z,0.80
2023-04-01T07:21:03.265Z,0.80
2023-04-01T07:22:02.975Z,1.20
2023-04-01T07:23:02.704Z,1.20
2023-04-01T07:24:02.627Z,1.20
2023-04-01T07:25:02.322Z,1.20
2023-04-01T07:26:02.737Z,1.20
2023-04-01T07:27:02.734Z,0.80
2023-04-01T07:28:02.533Z,0.80
2023-04-01T07:29:02.678Z,0.80
2023-04-01T07:30:02.661Z,0.80
2023-04-01T07:31:02.670Z,0.80
2023-04-01T07:32:03.300Z,0.90
2023-04-01T07:33:03.323Z,0.90
2023-04-01T07:34:03.709Z,0.90
2023-04-01T07:35:03.340Z,0.90
2023-04-01T07:36:03.431Z,0.90
2023-04-01T07:37:03.327Z,1.30
2023-04-01T07:38:03.193Z,1.30
2023-04-01T07:39:03.659Z,1.30
2023-04-01T07:40:03.569Z,1.30
2023-04-01T07:41:03.491Z,1.30
2023-04-01T07:42:02.766Z,1.20
2023-04-01T07:43:02.732Z,1.20
2023-04-01T07:44:02.489Z,1.20
2023-04-01T07:45:03.078Z,1.20
2023-04-01T07:46:02.795Z,1.20
2023-04-01T07:47:03.174Z,1.10
2023-04-01T07:48:03.088Z,1.10
2023-04-01T07:49:03.493Z,1.10
2023-04-01T07:50:03.203Z,1.10
2023-04-01T07:51:03.092Z,1.10
2023-04-01T07:52:02.759Z,1.00
2023-04-01T07:53:02.724Z,1.00
2023-04-01T07:54:02.561Z,1.00
2023-04-01T07:55:02.374Z,1.00
2023-04-01T07:56:03.007Z,1.00
2023-04-01T07:57:03.399Z,1.00
2023-04-01T07:58:03.374Z,1.00
2023-04-01T07:59:03.133Z,1.00
2023-04-01T08:00:03.635Z,1.00
2023-04-01T08:01:03.256Z,1.00
2023-04-01T08:02:02.852Z,1.00
2023-04-01T08:03:02.733Z,1.00
2023-04-01T08:04:02.820Z,1.00
2023-04-01T08:05:02.623Z,1.00
2023-04-01T08:06:02.579Z,1.00
2023-04-01T08:07:03.181Z,1.60
2023-04-01T08:08:03.347Z,1.60
2023-04-01T08:09:02.961Z,1.60
2023-04-01T08:10:02.773Z,1.60
2023-04-01T08:11:03.361Z,1.60
2023-04-01T08:12:03.613Z,2.00
2023-04-01T08:13:03.390Z,2.00
2023-04-01T08:14:03.815Z,2.00
2023-04-01T08:15:03.553Z,2.00
2023-04-01T08:16:03.527Z,2.00
2023-04-01T08:17:02.859Z,1.70
2023-04-01T08:18:02.820Z,1.70
2023-04-01T08:19:02.814Z,1.70
2023-04-01T08:20:02.772Z,1.70
2023-04-01T08:21:02.762Z,1.70
2023-04-01T08:22:03.339Z,1.70
2023-04-01T08:23:02.977Z,1.70
2023-04-01T08:24:02.907Z,1.70
2023-04-01T08:25:03.554Z,1.70
2023-04-01T08:26:03.234Z,1.70
2023-04-01T08:27:02.880Z,1.50
2023-04-01T08:28:02.796Z,1.50
2023-04-01T08:29:02.617Z,1.50
2023-04-01T08:30:02.598Z,1.50
2023-04-01T08:31:02.551Z,1.50
2023-04-01T08:32:03.097Z,1.60
2023-04-01T08:33:02.880Z,1.60
2023-04-01T08:34:02.741Z,1.60
2023-04-01T08:35:02.596Z,1.60
2023-04-01T08:36:02.909Z,1.60
2023-04-01T08:37:03.493Z,1.70
2023-04-01T08:38:03.494Z,1.70
2023-04-01T08:39:03.432Z,1.70
2023-04-01T08:40:03.538Z,1.70
2023-04-01T08:41:03.040Z,1.70
2023-04-01T08:42:03.673Z,2.00
2023-04-01T08:43:03.546Z,2.00
2023-04-01T08:44:03.659Z,2.00
2023-04-01T08:45:03.529Z,2.00
2023-04-01T08:46:03.449Z,2.00
2023-04-01T08:47:03.219Z,1.70
2023-04-01T08:48:02.993Z,1.70
2023-04-01T08:49:02.877Z,1.70
2023-04-01T08:50:02.820Z,1.70
2023-04-01T08:51:04.595Z,1.70
2023-04-01T08:52:03.335Z,2.10
2023-04-01T08:53:02.946Z,2.10
2023-04-01T08:54:02.942Z,2.10
2023-04-01T08:55:02.742Z,2.10
2023-04-01T08:56:03.258Z,2.10
2023-04-01T08:57:03.817Z,1.00
2023-04-01T08:58:03.535Z,1.00
2023-04-01T08:59:03.571Z,1.00
2023-04-01T09:00:03.560Z,1.00
2023-04-01T09:01:03.740Z,1.00
2023-04-01T09:02:03.489Z,0.80
2023-04-01T09:03:03.324Z,0.80
2023-04-01T09:04:03.445Z,0.80
2023-04-01T09:05:03.286Z,0.80
2023-04-01T09:06:03.256Z,0.80
2023-04-01T09:07:03.895Z,0.80
2023-04-01T09:08:03.597Z,0.80
2023-04-01T09:09:03.533Z,0.80
2023-04-01T09:10:03.284Z,0.80
2023-04-01T09:11:03.242Z,0.80
2023-04-01T09:12:03.985Z,0.50
2023-04-01T09:13:03.737Z,0.50
2023-04-01T09:14:03.507Z,0.50
2023-04-01T09:15:03.325Z,0.50
2023-04-01T09:16:03.975Z,0.50
2023-04-01T09:17:02.793Z,0.60
2023-04-01T09:18:03.312Z,0.60
2023-04-01T09:19:02.988Z,0.60
2023-04-01T09:20:02.784Z,0.60
2023-04-01T09:21:03.325Z,0.60
2023-04-01T09:22:03.267Z,0.60
2023-04-01T09:23:03.923Z,0.60
2023-04-01T09:24:03.598Z,0.60
2023-04-01T09:25:03.478Z,0.60
2023-04-01T09:26:03.387Z,0.60
2023-04-01T09:27:02.388Z,0.50
2023-04-01T09:28:02.374Z,0.50
2023-04-01T09:29:02.383Z,0.50
2023-04-01T09:30:02.351Z,0.50
2023-04-01T09:31:02.383Z,0.50
2023-04-01T09:32:03.022Z,0.40
2023-04-01T09:33:03.089Z,0.40
2023-04-01T09:34:03.124Z,0.40
2023-04-01T09:35:03.035Z,0.40
2023-04-01T09:36:03.035Z,0.40
2023-04-01T09:37:03.158Z,0.40
2023-04-01T09:38:03.151Z,0.40
2023-04-01T09:39:03.713Z,0.40
2023-04-01T09:40:03.526Z,0.40
2023-04-01T09:41:03.470Z,0.40
2023-04-01T09:42:02.496Z,0.70
2023-04-01T09:43:02.560Z,0.70
2023-04-01T09:44:02.677Z,0.70
2023-04-01T09:45:02.771Z,0.70
2023-04-01T09:46:02.593Z,0.70
2023-04-01T09:47:02.860Z,0.40
2023-04-01T09:48:03.381Z,0.40
2023-04-01T09:49:03.088Z,0.40
2023-04-01T09:50:03.099Z,0.40
2023-04-01T09:51:02.952Z,0.40
2023-04-01T09:52:02.870Z,0.60
2023-04-01T09:53:02.794Z,0.60
2023-04-01T09:54:02.934Z,0.60
2023-04-01T09:55:02.831Z,0.60
2023-04-01T09:56:03.393Z,0.60
2023-04-01T09:57:02.976Z,0.70
2023-04-01T09:58:03.000Z,0.70
2023-04-01T09:59:02.941Z,0.70
2023-04-01T10:00:03.508Z,0.70
2023-04-01T10:01:03.384Z,0.70
2023-04-01T10:02:03.509Z,0.50
2023-04-01T10:03:03.585Z,0.50
2023-04-01T10:04:03.528Z,0.50
2023-04-01T10:05:03.559Z,0.50
2023-04-01T10:06:03.532Z,0.50
2023-04-01T10:07:02.535Z,0.60
2023-04-01T10:08:02.578Z,0.60
2023-04-01T10:09:02.421Z,0.60
2023-04-01T10:10:02.453Z,0.60
2023-04-01T10:11:02.442Z,0.60
2023-04-01T10:12:03.134Z,0.50
2023-04-01T10:13:03.265Z,0.50
2023-04-01T10:14:03.231Z,0.50
2023-04-01T10:15:03.238Z,0.50
2023-04-01T10:16:03.182Z,0.50
2023-04-01T10:17:03.268Z,0.70
2023-04-01T10:18:03.273Z,0.70
2023-04-01T10:19:03.333Z,0.70
2023-04-01T10:20:03.392Z,0.70
2023-04-01T10:21:03.356Z,0.70
2023-04-01T10:22:02.709Z,0.60
2023-04-01T10:23:02.756Z,0.60
2023-04-01T10:24:02.763Z,0.60
2023-04-01T10:25:04.268Z,0.60
2023-04-01T10:26:02.625Z,0.60
2023-04-01T10:27:03.192Z,0.80
2023-04-01T10:28:03.271Z,0.80
2023-04-01T10:29:03.268Z,0.80
2023-04-01T10:30:03.015Z,0.80
2023-04-01T10:31:03.020Z,0.80
2023-04-01T10:32:02.781Z,0.80
2023-04-01T10:33:02.771Z,0.80
2023-04-01T10:34:02.867Z,0.80
2023-04-01T10:35:02.740Z,0.80
2023-04-01T10:36:03.143Z,0.80
2023-04-01T10:37:02.917Z,0.70
2023-04-01T10:38:03.184Z,0.70
2023-04-01T10:39:02.948Z,0.70
2023-04-01T10:40:02.915Z,0.70
2023-04-01T10:41:02.866Z,0.70
2023-04-01T10:42:03.378Z,1.70
2023-04-01T10:43:03.322Z,1.70
2023-04-01T10:44:03.320Z,1.70
2023-04-01T10:45:03.380Z,1.70
2023-04-01T10:46:03.460Z,1.70
2023-04-01T10:47:02.771Z,0.90
2023-04-01T10:48:02.809Z,0.90
2023-04-01T10:49:02.622Z,0.90
2023-04-01T10:50:02.560Z,0.90
2023-04-01T10:51:02.500Z,0.90
2023-04-01T10:52:03.200Z,1.90
2023-04-01T10:53:03.896Z,1.90
2023-04-01T10:54:03.317Z,1.90
2023-04-01T10:55:03.072Z,1.90
2023-04-01T10:56:03.481Z,1.90
2023-04-01T10:57:03.435Z,1.30
2023-04-01T10:58:03.366Z,1.30
2023-04-01T10:59:03.247Z,1.30
2023-04-01T11:00:03.212Z,1.30
2023-04-01T11:01:03.271Z,1.30
2023-04-01T11:02:11.455Z,0.80
2023-04-01T11:03:02.910Z,0.80
2023-04-01T11:04:02.918Z,0.80
2023-04-01T11:05:02.915Z,0.80
2023-04-01T11:06:03.103Z,0.80
2023-04-01T11:07:03.130Z,0.70
2023-04-01T11:08:05.836Z,0.70
2023-04-01T11:09:02.975Z,0.70
2023-04-01T11:10:02.820Z,0.70
2023-04-01T11:11:02.768Z,0.70
2023-04-01T11:12:02.509Z,0.70
2023-04-01T11:13:02.438Z,0.70
2023-04-01T11:14:02.366Z,0.70
2023-04-01T11:15:02.339Z,0.70
2023-04-01T11:16:02.323Z,0.70
2023-04-01T11:17:02.895Z,0.80
2023-04-01T11:18:02.804Z,0.80
2023-04-01T11:19:02.716Z,0.80
2023-04-01T11:20:02.656Z,0.80
2023-04-01T11:21:02.509Z,0.80
2023-04-01T11:22:03.014Z,0.50
2023-04-01T11:23:03.070Z,0.50
2023-04-01T11:24:05.807Z,0.50
2023-04-01T11:25:02.992Z,0.50
2023-04-01T11:26:02.994Z,0.50
2023-04-01T11:27:02.676Z,0.70
2023-04-01T11:28:02.472Z,0.70
2023-04-01T11:29:02.466Z,0.70
2023-04-01T11:30:02.530Z,0.70
2023-04-01T11:31:02.613Z,0.70
2023-04-01T11:32:03.306Z,0.50
2023-04-01T11:33:03.428Z,0.50
2023-04-01T11:34:03.138Z,0.50
2023-04-01T11:35:03.048Z,0.50
2023-04-01T11:36:02.975Z,0.50
2023-04-01T11:37:02.579Z,0.70
2023-04-01T11:38:02.175Z,0.70
2023-04-01T11:39:02.120Z,0.70
2023-04-01T11:40:02.135Z,0.70
2023-04-01T11:41:02.111Z,0.70
2023-04-01T11:42:02.676Z,1.00
2023-04-01T11:43:02.278Z,1.00
2023-04-01T11:44:02.303Z,1.00
2023-04-01T11:45:02.274Z,1.00
2023-04-01T11:46:02.205Z,1.00
2023-04-01T11:47:02.947Z,0.90
2023-04-01T11:48:02.674Z,0.90
2023-04-01T11:49:02.460Z,0.90
2023-04-01T11:50:02.441Z,0.90
2023-04-01T11:51:02.348Z,0.90
2023-04-01T11:52:03.028Z,1.00
2023-04-01T11:53:02.736Z,1.00
2023-04-01T11:54:02.672Z,1.00
2023-04-01T11:55:02.685Z,1.00
2023-04-01T11:56:02.571Z,1.00
2023-04-01T11:57:03.252Z,1.00
2023-04-01T11:58:03.113Z,1.00
2023-04-01T11:59:03.151Z,1.00
2023-04-01T12:00:02.944Z,1.00
2023-04-01T12:01:02.977Z,1.00
2023-04-01T12:02:02.718Z,0.60
2023-04-01T12:03:02.552Z,0.60
2023-04-01T12:04:02.850Z,0.60
2023-04-01T12:05:02.314Z,0.60
2023-04-01T12:06:02.433Z,0.60
2023-04-01T12:07:03.195Z,0.70
2023-04-01T12:08:02.992Z,0.70
2023-04-01T12:09:02.966Z,0.70
2023-04-01T12:10:02.927Z,0.70
2023-04-01T12:11:02.893Z,0.70
2023-04-01T12:12:01.798Z,0.90
2023-04-01T12:13:02.440Z,0.90
2023-04-01T12:14:02.127Z,0.90
2023-04-01T12:15:02.176Z,0.90
2023-04-01T12:16:02.204Z,0.90
2023-04-01T12:17:02.084Z,0.80
2023-04-01T12:18:02.634Z,0.80
2023-04-01T12:19:02.422Z,0.80
2023-04-01T12:20:02.449Z,0.80
2023-04-01T12:21:02.273Z,0.80
2023-04-01T12:22:02.276Z,0.70
2023-04-01T12:23:02.935Z,0.70
2023-04-01T12:24:02.688Z,0.70
2023-04-01T12:25:02.506Z,0.70
2023-04-01T12:26:02.511Z,0.70
2023-04-01T12:27:02.543Z,1.00
2023-04-01T12:28:03.041Z,1.00
2023-04-01T12:29:03.174Z,1.00
2023-04-01T12:30:02.867Z,1.00
2023-04-01T12:31:02.840Z,1.00
2023-04-01T12:32:03.114Z,0.70
2023-04-01T12:33:02.583Z,0.70
2023-04-01T12:34:02.357Z,0.70
2023-04-01T12:35:02.333Z,0.70
2023-04-01T12:36:02.367Z,0.70
2023-04-01T12:37:02.360Z,1.00
2023-04-01T12:38:02.838Z,1.00
2023-04-01T12:39:02.684Z,1.00
2023-04-01T12:40:02.702Z,1.00
2023-04-01T12:41:02.686Z,1.00
2023-04-01T12:42:02.583Z,0.80
2023-04-01T12:43:02.212Z,0.80
2023-04-01T12:44:02.092Z,0.80
2023-04-01T12:45:02.132Z,0.80
2023-04-01T12:46:02.214Z,0.80
2023-04-01T12:47:02.183Z,0.80
2023-04-01T12:48:02.296Z,0.80
2023-04-01T12:49:02.174Z,0.80
2023-04-01T12:50:02.093Z,0.80
2023-04-01T12:51:02.144Z,0.80
2023-04-01T12:52:02.130Z,0.60
2023-04-01T12:53:02.474Z,0.60
2023-04-01T12:54:02.455Z,0.60
2023-04-01T12:55:02.427Z,0.60
2023-04-01T12:56:02.433Z,0.60
2023-04-01T12:57:02.422Z,0.80
2023-04-01T12:58:02.209Z,0.80
2023-04-01T12:59:02.190Z,0.80
2023-04-01T13:00:02.053Z,0.80
2023-04-01T13:01:02.316Z,0.80
2023-04-01T13:02:02.192Z,0.80
2023-04-01T13:03:02.742Z,0.80
2023-04-01T13:04:02.729Z,0.80
2023-04-01T13:05:02.644Z,0.80
2023-04-01T13:06:02.488Z,0.80
2023-04-01T13:07:03.155Z,0.90
2023-04-01T13:08:02.569Z,0.90
2023-04-01T13:09:02.558Z,0.90
2023-04-01T13:10:02.604Z,0.90
2023-04-01T13:11:02.604Z,0.90
2023-04-01T13:12:02.618Z,0.80
2023-04-01T13:13:02.373Z,0.80
2023-04-01T13:14:02.612Z,0.80
2023-04-01T13:15:03.786Z,0.80
2023-04-01T13:16:02.120Z,0.80
2023-04-01T13:17:02.643Z,0.60
2023-04-01T13:18:02.435Z,0.60